Argenta, Illinois
Current Conditions -  °F | °C
As of 6:54 PM on Friday 21 Nov 2014 (Local Time) from KDEC Reporting Station
Overcast Overcast  
Wind Chill: -3°   Ceiling: 5000
Heat Index:   Visibility: 10mi
Dew Point: -8°   Wind: 12mph
Humidity: 48%   Direction: 150°SSE
Pressure: 30.31"   Gusts: NA
Location:  39.98°N, 88.82°W
Report Text: KDEC 220054Z 15010KT 10SM FEW042 OVC050 02/M08 A3031 RMK AO2 SLP273 T00171083
Loading
Personal Weather Stations






























Interactive Weather Map New forecast layout! Learn more

10-Day Weather Forecast

Advertisements
Track Severe Weather on mobile